Time;durP1;ratioP1;P1;durP2;ratioP2;P2;SDS_P1;SDS_P2;PMS_P1;PMS_P2;Temp;Humidity;BMP_temperature;BMP_pressure;BME280_temperature;BME280_humidity;BME280_pressure;Samples;Min_cycle;Max_cycle;Signal;HPM_P1;HPM_P2
2022/11/04 00:01:32;;;;;;;18.42;16.65;;;12.10;99.90;;;;;;4982192;28;20494;-80
2022/11/04 00:03:58;;;;;;;18.27;16.70;;;12.10;99.90;;;;;;4999337;28;20025;-80
2022/11/04 00:06:25;;;;;;;18.48;16.70;;;12.00;99.90;;;;;;5015788;28;20034;-80
2022/11/04 00:08:52;;;;;;;18.35;16.85;;;12.00;99.90;;;;;;4983255;28;20490;-80
2022/11/04 00:14:04;;;;;;;21.83;16.27;;;12.00;99.90;;;;;;5010398;28;20036;-80
2022/11/04 00:19:14;;;;;;;19.38;17.38;;;11.90;99.90;;;;;;5011853;28;20045;-80
2022/11/04 00:30:04;;;;;;;20.05;18.25;;;11.70;99.90;;;;;;4981288;28;20129;-80
2022/11/04 00:35:16;;;;;;;21.00;19.30;;;11.70;99.90;;;;;;4991831;28;20662;-80
2022/11/04 00:37:42;;;;;;;23.98;21.90;;;11.70;99.90;;;;;;4991280;28;20045;-80
2022/11/04 00:40:10;;;;;;;22.45;20.67;;;11.60;99.90;;;;;;4983878;28;20050;-80
2022/11/04 00:42:36;;;;;;;22.08;19.95;;;11.60;99.90;;;;;;4991271;28;20554;-80
2022/11/04 00:45:02;;;;;;;21.73;19.88;;;11.60;99.90;;;;;;4974119;28;20046;-80
2022/11/04 00:47:28;;;;;;;19.27;17.50;;;11.60;99.90;;;;;;4974920;28;20491;-80
2022/11/04 00:49:54;;;;;;;19.30;17.70;;;11.60;99.90;;;;;;4975018;28;20035;-80
2022/11/04 00:52:20;;;;;;;18.75;17.40;;;11.60;99.90;;;;;;4974830;28;20054;-80
2022/11/04 00:54:47;;;;;;;18.52;16.80;;;11.60;99.90;;;;;;4974722;28;20041;-79
2022/11/04 00:57:13;;;;;;;17.85;16.20;;;11.70;99.90;;;;;;4974481;28;20176;-80
2022/11/04 00:59:39;;;;;;;19.50;17.90;;;11.70;99.90;;;;;;4974852;28;20034;-80
2022/11/04 01:02:07;;;;;;;18.45;16.98;;;11.70;99.90;;;;;;4974137;28;20046;-80
2022/11/04 01:04:33;;;;;;;18.00;16.92;;;11.70;99.90;;;;;;4998553;28;20494;-80
2022/11/04 01:07:00;;;;;;;18.02;16.67;;;11.70;99.90;;;;;;5013402;28;20048;-80
2022/11/04 01:09:26;;;;;;;18.33;16.90;;;11.70;99.90;;;;;;5014558;28;20048;-80
2022/11/04 01:11:52;;;;;;;18.95;17.45;;;11.70;99.90;;;;;;4998163;28;20029;-80
2022/11/04 01:14:18;;;;;;;18.67;17.45;;;11.70;99.90;;;;;;4998070;28;20040;-80
2022/11/04 01:16:45;;;;;;;18.20;16.45;;;11.70;99.90;;;;;;4997755;28;20041;-79
2022/11/04 01:19:11;;;;;;;19.17;17.63;;;11.60;99.90;;;;;;5032239;28;20033;-80
2022/11/04 01:21:37;;;;;;;17.83;16.48;;;11.60;99.90;;;;;;4998170;28;20375;-80
2022/11/04 01:24:03;;;;;;;18.20;16.77;;;11.50;99.90;;;;;;5014703;28;20029;-80
2022/11/04 01:26:30;;;;;;;18.45;17.27;;;11.50;99.90;;;;;;5015091;28;20036;-80
2022/11/04 01:28:56;;;;;;;18.55;17.40;;;11.50;99.90;;;;;;5018675;28;20025;-80
2022/11/04 01:31:25;;;;;;;18.20;16.88;;;11.50;99.90;;;;;;5018309;28;20049;-80
2022/11/04 01:33:51;;;;;;;17.80;16.15;;;11.60;99.90;;;;;;5002529;28;20025;-80
2022/11/04 01:36:17;;;;;;;18.20;16.45;;;11.60;99.90;;;;;;5018569;28;20458;-80
2022/11/04 01:38:44;;;;;;;18.08;16.48;;;11.60;99.90;;;;;;5035812;28;20367;-80
2022/11/04 01:41:19;;;;;;;18.05;16.73;;;11.60;99.90;;;;;;5018067;28;20037;-80
2022/11/04 01:43:55;;;;;;;17.08;15.98;;;11.60;99.90;;;;;;5019275;28;20036;-80
2022/11/04 01:46:24;;;;;;;17.35;16.23;;;11.60;99.90;;;;;;5035641;28;20467;-80
2022/11/04 01:48:50;;;;;;;16.88;15.82;;;11.60;99.90;;;;;;5035784;28;20038;-80
2022/11/04 01:51:16;;;;;;;17.33;16.38;;;11.60;99.90;;;;;;4998500;28;20084;-80
2022/11/04 01:53:42;;;;;;;16.83;15.85;;;11.50;99.90;;;;;;4998415;28;20045;-80
2022/11/04 01:56:13;;;;;;;17.08;15.88;;;11.50;99.90;;;;;;5014532;28;20026;-80
2022/11/04 01:58:47;;;;;;;17.27;15.88;;;11.60;99.90;;;;;;5014977;28;20033;-80
2022/11/04 02:01:13;;;;;;;17.42;16.17;;;11.50;99.90;;;;;;5014366;28;20042;-80
2022/11/04 02:04:27;;;;;;;17.02;15.98;;;11.60;99.90;;;;;;5014862;28;20495;-80
2022/11/04 02:06:57;;;;;;;17.88;16.55;;;11.60;99.90;;;;;;5011215;28;20399;-79
2022/11/04 02:09:25;;;;;;;16.35;15.13;;;11.60;99.90;;;;;;5014978;28;20034;-80
2022/11/04 02:14:35;;;;;;;16.67;15.43;;;11.60;99.90;;;;;;5040034;28;20493;-80
2022/11/04 02:17:17;;;;;;;16.27;15.38;;;11.60;99.90;;;;;;5001153;28;20037;-80
2022/11/04 02:19:58;;;;;;;16.52;15.52;;;11.50;99.90;;;;;;5035321;28;20033;-80
2022/11/04 02:22:30;;;;;;;16.80;15.75;;;11.40;99.90;;;;;;5017655;28;20486;-80
2022/11/04 02:25:16;;;;;;;16.67;15.68;;;11.50;99.90;;;;;;5034507;28;20489;-80
2022/11/04 02:28:15;;;;;;;15.60;14.50;;;11.40;99.90;;;;;;5017683;28;20037;-80
2022/11/04 02:31:17;;;;;;;16.83;15.68;;;11.50;99.90;;;;;;5016768;28;20025;-80
2022/11/04 02:34:01;;;;;;;16.70;15.48;;;11.40;99.90;;;;;;5017488;28;20036;-80
2022/11/04 02:36:38;;;;;;;17.40;15.98;;;11.40;99.90;;;;;;5035262;28;20030;-80
2022/11/04 02:39:13;;;;;;;16.63;15.63;;;11.40;99.90;;;;;;5017348;28;20048;-80
2022/11/04 02:42:11;;;;;;;16.77;15.77;;;11.40;99.90;;;;;;5001440;28;20045;-80
2022/11/04 02:44:40;;;;;;;16.80;15.68;;;11.40;99.90;;;;;;4903641;29;20402;-80
2022/11/04 02:47:08;;;;;;;17.00;15.43;;;11.40;99.90;;;;;;4919638;29;20047;-80
2022/11/04 02:49:39;;;;;;;16.67;15.63;;;11.40;99.90;;;;;;4919767;29;20035;-80
2022/11/04 02:52:09;;;;;;;15.80;15.02;;;11.50;99.90;;;;;;4935099;29;20051;-80
2022/11/04 02:54:43;;;;;;;16.73;15.93;;;11.40;99.90;;;;;;4934839;29;20052;-80
2022/11/04 02:57:12;;;;;;;16.30;15.40;;;11.40;99.90;;;;;;4935527;29;20478;-80
2022/11/04 02:59:46;;;;;;;18.42;17.13;;;11.30;99.90;;;;;;4934799;29;20144;-80
2022/11/04 03:02:18;;;;;;;16.75;15.65;;;11.40;99.90;;;;;;4948654;28;20052;-80
2022/11/04 03:04:46;;;;;;;19.02;17.70;;;11.40;99.90;;;;;;4917949;29;20473;-80
2022/11/04 03:07:14;;;;;;;18.73;17.45;;;11.30;99.90;;;;;;4917956;29;20039;-80
2022/11/04 03:09:41;;;;;;;18.60;17.60;;;11.30;99.90;;;;;;4898266;29;20044;-80
2022/11/04 03:12:13;;;;;;;18.27;17.33;;;11.30;99.90;;;;;;4917309;29;20050;-80
2022/11/04 03:14:47;;;;;;;18.05;17.05;;;11.30;99.90;;;;;;4901700;29;20855;-80
2022/11/04 03:17:35;;;;;;;18.13;17.13;;;11.30;99.90;;;;;;4885393;29;20044;-80
2022/11/04 03:20:05;;;;;;;18.23;16.98;;;11.30;99.90;;;;;;4900854;29;20426;-80
2022/11/04 03:22:34;;;;;;;17.13;15.90;;;11.20;99.90;;;;;;4933000;28;20059;-80
2022/11/04 03:25:01;;;;;;;19.20;18.20;;;11.20;99.90;;;;;;4939396;28;20412;-80
2022/11/04 03:27:39;;;;;;;19.98;18.52;;;11.30;99.90;;;;;;4971418;28;20039;-80
2022/11/04 03:30:18;;;;;;;17.98;16.95;;;11.20;99.90;;;;;;4970810;28;20039;-80
2022/11/04 03:32:54;;;;;;;17.75;16.65;;;11.20;99.90;;;;;;4970700;28;20041;-81
2022/11/04 03:35:21;;;;;;;17.08;16.08;;;11.10;99.90;;;;;;4969847;28;20042;-80
2022/11/04 03:37:47;;;;;;;17.13;15.95;;;11.20;99.90;;;;;;4963894;28;20049;-80
2022/11/04 03:40:13;;;;;;;16.33;15.15;;;11.10;99.90;;;;;;4953462;29;20500;-80
2022/11/04 03:42:49;;;;;;;16.58;15.18;;;11.10;99.90;;;;;;4905487;29;20114;-80
2022/11/04 03:45:15;;;;;;;16.38;15.15;;;11.20;99.90;;;;;;4922411;28;20043;-80
2022/11/04 03:47:41;;;;;;;17.17;15.45;;;11.20;99.90;;;;;;4953439;29;20039;-80
2022/11/04 03:50:09;;;;;;;16.65;15.55;;;11.20;99.90;;;;;;4930246;28;20035;-80
2022/11/04 03:52:35;;;;;;;16.67;15.60;;;11.20;99.90;;;;;;4956256;28;20132;-81
2022/11/04 03:55:02;;;;;;;17.17;15.90;;;11.20;99.90;;;;;;4956660;28;20038;-80
2022/11/04 03:57:31;;;;;;;16.48;15.15;;;11.20;99.90;;;;;;4992676;28;20042;-80
2022/11/04 04:00:05;;;;;;;17.52;16.10;;;11.10;99.90;;;;;;5033532;28;20033;-80
2022/11/04 04:02:55;;;;;;;18.20;16.70;;;11.10;99.90;;;;;;5014841;28;20414;-80
2022/11/04 04:05:31;;;;;;;18.35;16.67;;;11.10;99.90;;;;;;5022770;28;20037;-81
2022/11/04 04:08:03;;;;;;;18.70;17.23;;;11.10;99.90;;;;;;5015848;28;20475;-81
2022/11/04 04:10:41;;;;;;;18.92;17.52;;;11.10;99.90;;;;;;5032974;28;20021;-81
2022/11/04 04:13:26;;;;;;;17.27;16.05;;;11.00;99.90;;;;;;5033324;28;20045;-81
2022/11/04 04:16:28;;;;;;;16.85;15.48;;;10.90;99.90;;;;;;5799356;22;21257;-79
2022/11/04 04:18:58;;;;;;;17.13;14.55;;;10.90;99.90;;;;;;4999319;28;20042;-80
2022/11/04 04:21:51;;;;;;;16.73;15.32;;;11.00;99.90;;;;;;4984684;28;20029;-80
2022/11/04 04:29:47;;;;;;;17.15;15.45;;;10.80;99.90;;;;;;5005352;28;20037;-80
2022/11/04 04:32:13;;;;;;;17.85;16.42;;;10.70;99.90;;;;;;4995194;28;20034;-80
2022/11/04 04:34:39;;;;;;;16.88;15.40;;;10.70;99.90;;;;;;4994883;28;20029;-80
2022/11/04 04:37:22;;;;;;;18.95;16.48;;;10.70;99.90;;;;;;4995831;28;20037;-80
2022/11/04 04:45:35;;;;;;;16.50;14.85;;;10.70;99.90;;;;;;5003230;28;20389;-80
2022/11/04 04:48:01;;;;;;;15.88;14.57;;;10.60;99.90;;;;;;4987930;28;20382;-80
2022/11/04 04:50:36;;;;;;;14.93;13.93;;;10.50;99.90;;;;;;4977478;28;20038;-80
2022/11/04 04:53:03;;;;;;;17.10;14.25;;;10.50;99.90;;;;;;4995617;28;20025;-80
2022/11/04 04:55:30;;;;;;;16.52;15.02;;;10.50;99.90;;;;;;4995868;28;20382;-80
2022/11/04 04:57:57;;;;;;;16.42;15.00;;;10.50;99.90;;;;;;4995699;28;20042;-80
2022/11/04 05:00:23;;;;;;;15.50;13.90;;;10.50;99.90;;;;;;4994412;28;20034;-80
2022/11/04 05:02:49;;;;;;;14.65;12.77;;;10.50;99.90;;;;;;5012671;28;20049;-80
2022/11/04 05:05:15;;;;;;;15.20;13.85;;;10.50;99.90;;;;;;4995631;28;20370;-80
2022/11/04 05:07:41;;;;;;;15.27;13.73;;;10.50;99.90;;;;;;5013026;28;20025;-80
2022/11/04 05:10:09;;;;;;;15.23;13.88;;;10.60;99.90;;;;;;4995559;28;20455;-80
2022/11/04 05:15:22;;;;;;;14.52;13.13;;;10.60;99.90;;;;;;4910415;29;20111;-80
2022/11/04 05:18:00;;;;;;;15.30;13.80;;;10.60;99.90;;;;;;4913389;29;20097;-80
2022/11/04 05:20:27;;;;;;;15.30;13.75;;;10.60;99.90;;;;;;4898081;29;20054;-80
2022/11/04 05:22:53;;;;;;;13.80;12.80;;;10.60;99.90;;;;;;4913931;29;20496;-80
2022/11/04 05:25:20;;;;;;;14.77;13.57;;;10.60;99.90;;;;;;4898018;29;20039;-80
2022/11/04 05:27:46;;;;;;;17.17;13.60;;;10.70;99.90;;;;;;4898052;29;20059;-80
2022/11/04 05:30:12;;;;;;;14.93;13.40;;;10.60;99.90;;;;;;4913193;29;20382;-80
2022/11/04 05:32:38;;;;;;;13.88;12.95;;;10.60;99.90;;;;;;4913623;29;20524;-80
2022/11/04 05:35:04;;;;;;;14.02;12.95;;;10.60;99.90;;;;;;4867315;29;20043;-79
2022/11/04 05:37:30;;;;;;;14.40;13.27;;;10.60;99.90;;;;;;4913747;29;20039;-80
2022/11/04 05:39:57;;;;;;;14.48;13.18;;;10.70;99.90;;;;;;4882261;29;20040;-80
2022/11/04 05:42:23;;;;;;;13.65;12.75;;;10.60;99.90;;;;;;4913741;29;20047;-80
2022/11/04 05:44:49;;;;;;;15.02;13.50;;;10.60;99.90;;;;;;4912458;29;20040;-80
2022/11/04 05:47:15;;;;;;;13.60;12.45;;;10.60;99.90;;;;;;4913333;29;20544;-80
2022/11/04 05:49:41;;;;;;;13.48;12.43;;;10.60;99.90;;;;;;4898276;29;20035;-80
2022/11/04 05:52:07;;;;;;;14.48;13.18;;;10.60;99.90;;;;;;4906499;28;20387;-80
2022/11/04 05:54:35;;;;;;;13.88;12.88;;;10.60;99.90;;;;;;4992862;28;20383;-80
2022/11/04 05:57:01;;;;;;;15.43;13.35;;;10.60;99.90;;;;;;4992583;28;20037;-80
2022/11/04 05:59:27;;;;;;;14.40;13.20;;;10.60;99.90;;;;;;4992327;28;20379;-80
2022/11/04 06:01:53;;;;;;;13.90;12.55;;;10.60;99.90;;;;;;4958252;28;20410;-80
2022/11/04 06:04:19;;;;;;;13.68;12.65;;;10.60;99.90;;;;;;4958864;28;20043;-80
2022/11/04 06:06:46;;;;;;;13.40;12.48;;;10.60;99.90;;;;;;4992571;28;20383;-80
2022/11/04 06:09:12;;;;;;;13.88;12.77;;;10.60;99.90;;;;;;4991350;28;20030;-80
2022/11/04 06:11:38;;;;;;;14.77;13.40;;;10.50;99.90;;;;;;4992411;28;20374;-80
2022/11/04 06:14:04;;;;;;;15.88;14.63;;;10.40;99.90;;;;;;4976446;28;20034;-80
2022/11/04 06:16:30;;;;;;;16.20;13.23;;;10.50;99.90;;;;;;4978166;28;20046;-80
2022/11/04 06:18:57;;;;;;;13.63;12.43;;;10.50;99.90;;;;;;4996062;28;20034;-80
2022/11/04 06:21:27;;;;;;;13.00;11.73;;;10.50;99.90;;;;;;4996341;28;20030;-80
2022/11/04 06:23:56;;;;;;;14.43;13.07;;;10.60;99.90;;;;;;4978801;28;20038;-80
2022/11/04 06:26:22;;;;;;;13.75;12.52;;;10.70;99.90;;;;;;5011803;28;20026;-80
2022/11/04 06:28:49;;;;;;;15.05;13.57;;;10.70;99.90;;;;;;4997826;28;20029;-80
2022/11/04 06:31:15;;;;;;;17.50;13.93;;;10.80;99.90;;;;;;4995640;28;20061;-79
2022/11/04 06:33:41;;;;;;;14.60;13.38;;;10.80;99.90;;;;;;4997905;28;20355;-80
2022/11/04 06:36:09;;;;;;;18.67;14.00;;;10.60;99.90;;;;;;4998008;28;20026;-79
2022/11/04 06:38:36;;;;;;;15.18;13.52;;;10.70;99.90;;;;;;4998069;28;20374;-79
2022/11/04 06:41:03;;;;;;;13.95;12.82;;;10.80;99.90;;;;;;4981507;28;20041;-79
2022/11/04 06:43:30;;;;;;;16.02;14.52;;;10.80;99.90;;;;;;4994607;28;20050;-80
2022/11/04 06:45:57;;;;;;;14.32;12.85;;;10.70;99.90;;;;;;4995327;28;20382;-79
2022/11/04 06:48:23;;;;;;;14.05;12.95;;;10.70;99.90;;;;;;4978394;28;20033;-80
2022/11/04 06:50:49;;;;;;;18.50;14.50;;;10.70;99.90;;;;;;4978127;28;20033;-79
2022/11/04 06:53:15;;;;;;;16.25;14.73;;;10.70;99.90;;;;;;4995477;28;20498;-79
2022/11/04 06:55:42;;;;;;;20.55;13.70;;;10.60;99.90;;;;;;4977127;28;20089;-80
2022/11/04 06:58:08;;;;;;;18.98;15.27;;;10.60;99.90;;;;;;4994996;28;20502;-79
2022/11/04 07:00:34;;;;;;;15.77;14.13;;;10.70;99.90;;;;;;4977542;28;20022;-79
2022/11/04 07:03:00;;;;;;;18.00;14.38;;;10.60;99.90;;;;;;4977873;28;20042;-79
2022/11/04 07:05:26;;;;;;;18.13;14.45;;;10.60;99.90;;;;;;4977443;28;20398;-80
2022/11/04 07:07:53;;;;;;;17.10;15.43;;;10.50;99.90;;;;;;4995423;28;20363;-80
2022/11/04 07:10:19;;;;;;;16.30;15.00;;;10.40;99.90;;;;;;4993175;28;20045;-80
2022/11/04 07:12:45;;;;;;;17.52;15.65;;;10.40;99.90;;;;;;4977373;28;20467;-80
2022/11/04 07:15:11;;;;;;;16.98;15.38;;;10.40;99.90;;;;;;4976945;28;20065;-80
2022/11/04 07:17:37;;;;;;;17.95;15.90;;;10.40;99.90;;;;;;4977752;28;20043;-79
2022/11/04 07:20:04;;;;;;;17.27;15.52;;;10.40;99.90;;;;;;4982541;28;20030;-79
2022/11/04 07:22:30;;;;;;;15.98;14.50;;;10.40;99.90;;;;;;4994065;28;20030;-80
2022/11/04 07:24:57;;;;;;;16.08;14.63;;;10.50;99.90;;;;;;4981166;28;20041;-80
2022/11/04 07:27:23;;;;;;;17.88;14.70;;;10.40;99.90;;;;;;5014145;28;20033;-79
2022/11/04 07:29:49;;;;;;;17.13;15.52;;;10.40;99.90;;;;;;5014439;28;20034;-79
2022/11/04 07:32:15;;;;;;;17.30;15.48;;;10.50;99.90;;;;;;4981354;28;20041;-80
2022/11/04 07:34:41;;;;;;;19.95;18.05;;;10.50;99.90;;;;;;4994673;28;20041;-79
2022/11/04 07:37:07;;;;;;;16.90;15.13;;;10.50;99.90;;;;;;4977303;28;20038;-79
2022/11/04 07:39:34;;;;;;;20.55;16.55;;;10.50;99.90;;;;;;4977328;28;20034;-79
2022/11/04 07:42:00;;;;;;;17.70;15.90;;;10.50;99.90;;;;;;4976983;28;20486;-80
2022/11/04 07:44:26;;;;;;;19.17;16.05;;;10.40;99.90;;;;;;4976366;28;20388;-80
2022/11/04 07:46:52;;;;;;;17.92;15.80;;;10.40;99.90;;;;;;4991382;28;20049;-79
2022/11/04 07:49:18;;;;;;;19.58;16.05;;;10.30;99.90;;;;;;4994539;28;20034;-80
2022/11/04 07:51:44;;;;;;;17.33;15.55;;;10.30;99.90;;;;;;4994614;28;20037;-79
2022/11/04 07:54:10;;;;;;;17.30;15.70;;;10.30;99.90;;;;;;4994551;28;20034;-79
2022/11/04 07:56:36;;;;;;;17.55;15.68;;;10.30;99.90;;;;;;4993905;28;20455;-79
2022/11/04 07:59:05;;;;;;;18.33;16.25;;;10.30;99.90;;;;;;4977063;28;20034;-79
2022/11/04 08:01:31;;;;;;;18.90;16.90;;;10.40;99.90;;;;;;4993942;28;20030;-79
2022/11/04 08:03:58;;;;;;;27.02;22.90;;;10.40;99.90;;;;;;4994044;28;20598;-79
2022/11/04 08:06:24;;;;;;;21.80;19.63;;;10.50;99.90;;;;;;4994173;28;20374;-79
2022/11/04 08:08:52;;;;;;;19.08;17.50;;;10.50;99.90;;;;;;4993744;28;20042;-79
2022/11/04 08:11:20;;;;;;;19.15;17.38;;;10.50;99.90;;;;;;4976905;28;20034;-79
2022/11/04 08:13:46;;;;;;;20.08;18.50;;;10.60;99.90;;;;;;4993997;28;20034;-79
2022/11/04 08:16:14;;;;;;;20.42;18.63;;;10.60;99.90;;;;;;4993275;28;20065;-79
2022/11/04 08:18:40;;;;;;;19.55;17.60;;;10.70;99.90;;;;;;4972934;28;20046;-79
2022/11/04 08:21:07;;;;;;;19.50;17.77;;;10.70;99.90;;;;;;4989381;28;20502;-79
2022/11/04 08:23:33;;;;;;;20.70;19.10;;;10.70;99.90;;;;;;4973966;28;20423;-79
2022/11/04 08:25:59;;;;;;;19.92;18.38;;;10.80;99.90;;;;;;4986896;28;20061;-80
2022/11/04 08:28:26;;;;;;;19.38;17.88;;;10.80;99.90;;;;;;4993707;28;20025;-79
2022/11/04 08:31:06;;;;;;;18.27;16.85;;;10.90;99.90;;;;;;4993328;28;20030;-79
2022/11/04 08:33:32;;;;;;;17.60;16.40;;;11.00;99.90;;;;;;4976449;28;20382;-80
2022/11/04 08:36:04;;;;;;;15.95;14.32;;;11.10;99.90;;;;;;4993208;28;20041;-80
2022/11/04 08:38:30;;;;;;;16.13;14.60;;;11.20;99.90;;;;;;4991916;28;20022;-79
2022/11/04 08:40:57;;;;;;;16.73;15.23;;;11.20;99.90;;;;;;4989219;28;20031;-80
2022/11/04 08:43:24;;;;;;;16.65;15.23;;;11.30;99.90;;;;;;4973809;28;20502;-80
2022/11/04 08:45:51;;;;;;;17.50;15.63;;;11.30;99.90;;;;;;4956611;28;20034;-80
2022/11/04 08:48:17;;;;;;;16.70;15.13;;;11.30;99.90;;;;;;4956634;28;20031;-80
2022/11/04 08:50:46;;;;;;;15.85;14.63;;;11.40;99.90;;;;;;4973917;28;20033;-80
2022/11/04 08:53:12;;;;;;;17.33;15.82;;;11.50;99.90;;;;;;4973596;28;20039;-79
2022/11/04 08:55:39;;;;;;;16.65;15.63;;;11.60;99.90;;;;;;4973866;28;20437;-80
2022/11/04 08:58:05;;;;;;;15.88;14.73;;;11.60;99.90;;;;;;4956379;28;20035;-80
2022/11/04 09:00:31;;;;;;;16.60;15.40;;;11.60;99.90;;;;;;4972139;28;20399;-80
2022/11/04 09:02:58;;;;;;;15.85;14.75;;;11.60;99.90;;;;;;4973419;28;20042;-80
2022/11/04 09:05:24;;;;;;;16.92;15.80;;;11.70;99.90;;;;;;4973736;28;20035;-80
2022/11/04 09:07:50;;;;;;;16.33;15.20;;;11.70;99.90;;;;;;4972304;28;20045;-80
2022/11/04 09:10:17;;;;;;;17.50;16.20;;;11.80;99.90;;;;;;4973490;28;20103;-80
2022/11/04 09:12:43;;;;;;;16.48;15.20;;;11.90;99.90;;;;;;4956300;28;20035;-80
2022/11/04 09:15:10;;;;;;;16.73;15.73;;;12.00;99.90;;;;;;4956025;28;20031;-79
2022/11/04 09:17:36;;;;;;;16.58;15.48;;;12.00;99.90;;;;;;4982338;28;20057;-80
2022/11/04 09:20:03;;;;;;;15.93;14.80;;;12.10;99.90;;;;;;4980956;28;20038;-79
2022/11/04 09:22:30;;;;;;;16.05;15.13;;;12.10;99.90;;;;;;4958714;28;20038;-79
2022/11/04 09:24:56;;;;;;;17.95;16.67;;;12.20;99.90;;;;;;4995553;28;20489;-80
2022/11/04 09:27:22;;;;;;;15.95;14.73;;;12.20;99.90;;;;;;4995109;28;20045;-80
2022/11/04 09:29:49;;;;;;;16.13;15.23;;;12.30;99.90;;;;;;5012496;28;20505;-80
2022/11/04 09:32:15;;;;;;;17.23;16.38;;;12.40;99.90;;;;;;5011268;28;20041;-80
2022/11/04 09:34:41;;;;;;;15.68;14.70;;;12.40;99.90;;;;;;5012326;28;20049;-80
2022/11/04 09:37:07;;;;;;;16.42;15.45;;;12.40;99.90;;;;;;4993461;28;20030;-79
2022/11/04 09:39:33;;;;;;;17.27;15.98;;;12.40;99.90;;;;;;4958626;28;20050;-80
2022/11/04 09:42:00;;;;;;;17.25;16.00;;;12.50;99.90;;;;;;4992783;28;20034;-80
2022/11/04 09:44:38;;;;;;;16.42;15.25;;;12.60;99.90;;;;;;4992175;28;20054;-80
2022/11/04 09:47:06;;;;;;;16.17;15.18;;;12.60;99.90;;;;;;4991974;28;20507;-79
2022/11/04 09:49:35;;;;;;;16.75;15.80;;;12.70;99.90;;;;;;4978307;28;20037;-80
2022/11/04 09:52:04;;;;;;;16.90;15.70;;;12.70;99.90;;;;;;4979301;28;20023;-79
2022/11/04 09:54:42;;;;;;;17.17;16.13;;;12.80;99.90;;;;;;4979660;28;20386;-79
2022/11/04 09:57:12;;;;;;;17.40;16.10;;;12.80;99.90;;;;;;4979533;28;20038;-79
2022/11/04 09:59:41;;;;;;;14.93;14.02;;;12.80;99.60;;;;;;4979068;28;20474;-80
2022/11/04 10:02:10;;;;;;;15.70;14.60;;;12.90;98.80;;;;;;4978130;28;20042;-79
2022/11/04 10:05:02;;;;;;;16.15;14.95;;;12.90;99.10;;;;;;4996348;28;20037;-79
2022/11/04 10:07:38;;;;;;;15.55;14.57;;;12.90;98.80;;;;;;4979421;28;20037;-79
2022/11/04 10:10:44;;;;;;;14.40;13.63;;;12.90;98.30;;;;;;4996003;28;20038;-79
2022/11/04 10:13:26;;;;;;;17.70;16.38;;;13.00;97.80;;;;;;4965024;28;20042;-79
2022/11/04 10:16:11;;;;;;;;;;;13.00;98.20;;;;;;4978921;28;20031;-79
2022/11/04 10:18:51;;;;;;;16.92;16.02;;;13.10;97.10;;;;;;4996092;28;20382;-79
2022/11/04 10:21:42;;;;;;;21.90;20.40;;;13.10;97.40;;;;;;4995882;28;20026;-79
2022/11/04 10:24:34;;;;;;;17.63;16.73;;;13.20;97.70;;;;;;4996129;28;20034;-79
2022/11/04 10:27:03;;;;;;;16.05;15.07;;;13.20;96.60;;;;;;4974071;28;20480;-79
2022/11/04 10:30:02;;;;;;;19.25;18.08;;;13.20;96.20;;;;;;4957699;28;20388;-79
2022/11/04 10:32:33;;;;;;;18.75;17.50;;;13.30;96.50;;;;;;4965345;28;20035;-80
2022/11/04 10:35:00;;;;;;;;;;;13.30;95.70;;;;;;4974456;28;20046;-79
2022/11/04 10:37:26;;;;;;;15.55;14.55;;;13.40;96.00;;;;;;4978177;28;20386;-79
2022/11/04 10:40:00;;;;;;;17.38;16.33;;;13.40;95.20;;;;;;4993693;28;20030;-80
2022/11/04 10:42:26;;;;;;;16.02;14.77;;;13.40;94.90;;;;;;4989150;28;20030;-79
2022/11/04 10:44:52;;;;;;;16.27;15.13;;;13.50;94.70;;;;;;4975563;28;20046;-79
2022/11/04 10:47:25;;;;;;;16.23;14.90;;;13.50;94.00;;;;;;4981301;28;20035;-79
2022/11/04 10:50:12;;;;;;;15.40;14.27;;;13.50;93.80;;;;;;4973933;28;20042;-80
2022/11/04 10:52:40;;;;;;;15.73;14.65;;;13.60;94.00;;;;;;4973312;28;20035;-80
2022/11/04 10:55:16;;;;;;;16.70;15.43;;;13.70;94.00;;;;;;4958159;28;20027;-80
2022/11/04 10:57:43;;;;;;;16.55;15.27;;;13.60;93.50;;;;;;4973663;28;20043;-80
2022/11/04 11:00:10;;;;;;;16.27;15.15;;;13.70;93.50;;;;;;4956735;28;20030;-79
2022/11/04 11:02:36;;;;;;;16.70;15.48;;;13.60;93.10;;;;;;4973857;28;20034;-79
2022/11/04 11:05:14;;;;;;;15.63;14.73;;;13.60;92.80;;;;;;4975391;28;20059;-79
2022/11/04 11:07:40;;;;;;;19.00;17.23;;;13.60;93.10;;;;;;4974568;28;20027;-79
2022/11/04 11:10:19;;;;;;;18.88;17.27;;;13.60;92.20;;;;;;4974657;28;20035;-79
2022/11/04 11:12:53;;;;;;;16.95;15.70;;;13.70;92.50;;;;;;4958023;28;20038;-80
2022/11/04 11:15:23;;;;;;;16.77;15.68;;;13.80;92.60;;;;;;4975123;28;20079;-79
2022/11/04 11:17:51;;;;;;;18.42;16.90;;;13.90;92.90;;;;;;4989399;28;20046;-79
2022/11/04 11:20:22;;;;;;;17.52;16.17;;;13.90;92.50;;;;;;4971102;28;20053;-79
2022/11/04 11:22:50;;;;;;;17.38;16.33;;;13.90;91.90;;;;;;4990419;28;20026;-79
2022/11/04 11:25:26;;;;;;;19.90;18.10;;;13.90;91.20;;;;;;5000210;28;20034;-79
2022/11/04 11:27:55;;;;;;;19.20;17.52;;;13.90;91.20;;;;;;5014629;28;20029;-79
2022/11/04 11:30:25;;;;;;;18.65;17.25;;;13.90;91.00;;;;;;4996612;28;20041;-79
2022/11/04 11:32:54;;;;;;;19.42;18.17;;;14.00;91.10;;;;;;5013471;28;20033;-79
2022/11/04 11:35:22;;;;;;;19.13;17.67;;;14.10;91.10;;;;;;4989457;28;20041;-79
2022/11/04 11:37:48;;;;;;;19.42;17.95;;;14.10;90.90;;;;;;4977183;28;20034;-79
2022/11/04 11:40:30;;;;;;;18.33;17.13;;;14.20;91.00;;;;;;4994396;28;20383;-79
2022/11/04 11:42:59;;;;;;;19.50;18.20;;;14.20;90.70;;;;;;4977810;28;20042;-80
2022/11/04 11:45:26;;;;;;;18.30;17.20;;;14.30;90.80;;;;;;4976832;28;20046;-79
2022/11/04 11:47:55;;;;;;;18.60;17.25;;;14.30;90.60;;;;;;4976074;28;20046;-79
2022/11/04 11:50:32;;;;;;;18.92;17.63;;;14.30;90.30;;;;;;4977656;28;20053;-79
2022/11/04 11:53:19;;;;;;;20.02;18.65;;;14.20;90.70;;;;;;4977919;28;20095;-79
2022/11/04 11:56:09;;;;;;;19.42;17.88;;;14.30;90.00;;;;;;4976780;28;20034;-79
2022/11/04 11:58:49;;;;;;;19.13;18.00;;;14.40;90.20;;;;;;4977177;28;20034;-79
2022/11/04 12:01:16;;;;;;;21.10;19.30;;;14.40;89.40;;;;;;4976365;28;20034;-79
2022/11/04 12:03:46;;;;;;;20.50;19.15;;;14.40;88.80;;;;;;4977017;28;20050;-79
2022/11/04 12:06:35;;;;;;;22.90;21.38;;;14.50;88.90;;;;;;4977441;28;20022;-79
2022/11/04 12:09:19;;;;;;;22.35;20.50;;;14.60;88.40;;;;;;4976697;28;20026;-79
2022/11/04 12:12:00;;;;;;;21.63;20.13;;;14.70;88.50;;;;;;4975658;28;20049;-79
2022/11/04 12:14:57;;;;;;;18.67;17.35;;;14.60;87.00;;;;;;4976677;28;20030;-79
2022/11/04 12:17:50;;;;;;;20.85;19.30;;;14.40;88.00;;;;;;4991125;28;20073;-79
2022/11/04 12:20:57;;;;;;;20.13;18.48;;;14.40;89.20;;;;;;4993794;28;20030;-79
2022/11/04 12:23:30;;;;;;;21.88;20.48;;;14.40;89.80;;;;;;4974930;28;20423;-79
2022/11/04 12:26:15;;;;;;;23.05;21.38;;;14.40;86.50;;;;;;5005944;28;20030;-79
2022/11/04 12:29:04;;;;;;;23.63;22.13;;;14.40;87.00;;;;;;5013226;28;20033;-79
2022/11/04 12:32:11;;;;;;;21.50;20.50;;;14.50;87.70;;;;;;4997595;28;20034;-79
2022/11/04 12:34:50;;;;;;;21.27;19.88;;;14.70;84.70;;;;;;4952582;28;20043;-79
2022/11/04 12:37:35;;;;;;;21.42;20.02;;;14.70;83.20;;;;;;4936617;29;20046;-79
2022/11/04 12:40:19;;;;;;;21.88;20.67;;;14.80;83.80;;;;;;4908040;29;20044;-79
2022/11/04 12:43:15;;;;;;;21.25;19.60;;;14.80;84.40;;;;;;4929009;29;20032;-79
2022/11/04 12:45:55;;;;;;;21.77;20.45;;;14.70;83.60;;;;;;4913572;29;20056;-79
2022/11/04 12:48:40;;;;;;;20.45;18.95;;;14.80;82.20;;;;;;4914397;29;20374;-79
2022/11/04 12:51:43;;;;;;;19.35;17.83;;;14.80;82.80;;;;;;4914286;29;20137;-79
2022/11/04 12:54:45;;;;;;;23.33;21.77;;;14.90;83.20;;;;;;4914214;29;20039;-79
2022/11/04 12:57:36;;;;;;;24.75;22.63;;;14.90;80.30;;;;;;4914221;29;20043;-79
2022/11/04 13:00:13;;;;;;;22.05;20.52;;;14.80;79.20;;;;;;4900258;29;20039;-79
2022/11/04 13:02:49;;;;;;;23.73;22.30;;;14.80;80.70;;;;;;4883652;29;20040;-79
2022/11/04 13:05:21;;;;;;;23.40;21.77;;;14.80;81.20;;;;;;4914303;29;20081;-79
2022/11/04 13:08:14;;;;;;;23.27;21.88;;;14.90;81.00;;;;;;4914464;29;20430;-79
2022/11/04 13:10:47;;;;;;;21.00;19.80;;;14.80;80.00;;;;;;4922313;28;20049;-79
2022/11/04 13:13:14;;;;;;;23.70;21.80;;;14.80;80.70;;;;;;4979016;28;20026;-79
2022/11/04 13:15:45;;;;;;;22.85;21.35;;;14.90;80.00;;;;;;4975301;28;20045;-79
2022/11/04 13:18:14;;;;;;;22.70;20.77;;;14.90;79.10;;;;;;4980168;28;20391;-79
2022/11/04 13:20:44;;;;;;;21.40;19.90;;;14.90;78.70;;;;;;4976142;28;20506;-79
2022/11/04 13:23:16;;;;;;;19.43;17.90;;;14.70;79.20;;;;;;4956807;28;20027;-79